sensor_id;sensor_type;location;lat;lon;timestamp;P1;durP1;ratioP1;P2;durP2;ratioP2
67503;SDS011;54351;49.108;1.502;2023-03-03T00:00:48;234.90;;;216.35;;
67503;SDS011;54351;49.108;1.502;2023-03-03T00:03:15;213.43;;;195.82;;
67503;SDS011;54351;49.108;1.502;2023-03-03T00:05:42;219.00;;;201.20;;
67503;SDS011;54351;49.108;1.502;2023-03-03T00:08:08;219.20;;;201.80;;
67503;SDS011;54351;49.108;1.502;2023-03-03T00:10:35;215.25;;;197.88;;
67503;SDS011;54351;49.108;1.502;2023-03-03T00:13:01;210.30;;;192.90;;
67503;SDS011;54351;49.108;1.502;2023-03-03T00:15:30;258.45;;;237.98;;
67503;SDS011;54351;49.108;1.502;2023-03-03T00:17:56;193.52;;;177.23;;
67503;SDS011;54351;49.108;1.502;2023-03-03T00:20:29;164.52;;;149.63;;
67503;SDS011;54351;49.108;1.502;2023-03-03T00:22:55;161.07;;;147.13;;
67503;SDS011;54351;49.108;1.502;2023-03-03T00:25:29;176.73;;;161.90;;
67503;SDS011;54351;49.108;1.502;2023-03-03T00:27:55;129.98;;;117.88;;
67503;SDS011;54351;49.108;1.502;2023-03-03T00:30:26;94.13;;;84.32;;
67503;SDS011;54351;49.108;1.502;2023-03-03T00:32:52;118.93;;;107.53;;
67503;SDS011;54351;49.108;1.502;2023-03-03T00:35:26;107.75;;;97.22;;
67503;SDS011;54351;49.108;1.502;2023-03-03T00:37:57;109.68;;;98.18;;
67503;SDS011;54351;49.108;1.502;2023-03-03T00:40:37;113.10;;;102.15;;
67503;SDS011;54351;49.108;1.502;2023-03-03T00:43:20;130.27;;;118.07;;
67503;SDS011;54351;49.108;1.502;2023-03-03T00:45:48;114.13;;;103.00;;
67503;SDS011;54351;49.108;1.502;2023-03-03T00:48:22;150.13;;;137.38;;
67503;SDS011;54351;49.108;1.502;2023-03-03T00:50:48;131.38;;;118.47;;
67503;SDS011;54351;49.108;1.502;2023-03-03T00:53:16;126.68;;;114.55;;
67503;SDS011;54351;49.108;1.502;2023-03-03T00:55:43;132.95;;;119.43;;
67503;SDS011;54351;49.108;1.502;2023-03-03T00:58:10;131.57;;;118.57;;
67503;SDS011;54351;49.108;1.502;2023-03-03T01:00:36;124.50;;;113.00;;
67503;SDS011;54351;49.108;1.502;2023-03-03T01:03:03;109.43;;;98.35;;
67503;SDS011;54351;49.108;1.502;2023-03-03T01:05:30;138.93;;;125.72;;
67503;SDS011;54351;49.108;1.502;2023-03-03T01:07:56;123.65;;;112.45;;
67503;SDS011;54351;49.108;1.502;2023-03-03T01:10:22;156.40;;;141.82;;
67503;SDS011;54351;49.108;1.502;2023-03-03T01:12:51;147.20;;;133.90;;
67503;SDS011;54351;49.108;1.502;2023-03-03T01:15:17;146.93;;;133.68;;
67503;SDS011;54351;49.108;1.502;2023-03-03T01:17:43;206.20;;;188.95;;
67503;SDS011;54351;49.108;1.502;2023-03-03T01:20:10;155.30;;;141.77;;
67503;SDS011;54351;49.108;1.502;2023-03-03T01:22:37;158.77;;;145.25;;
67503;SDS011;54351;49.108;1.502;2023-03-03T01:25:03;176.82;;;161.65;;
67503;SDS011;54351;49.108;1.502;2023-03-03T01:27:29;259.77;;;239.38;;
67503;SDS011;54351;49.108;1.502;2023-03-03T01:29:56;183.93;;;168.98;;
67503;SDS011;54351;49.108;1.502;2023-03-03T01:32:23;261.95;;;240.30;;
67503;SDS011;54351;49.108;1.502;2023-03-03T01:34:49;256.25;;;235.85;;
67503;SDS011;54351;49.108;1.502;2023-03-03T01:37:15;301.70;;;278.48;;
67503;SDS011;54351;49.108;1.502;2023-03-03T01:39:41;212.55;;;195.55;;
67503;SDS011;54351;49.108;1.502;2023-03-03T01:42:07;199.25;;;182.73;;
67503;SDS011;54351;49.108;1.502;2023-03-03T01:44:33;207.80;;;191.18;;
67503;SDS011;54351;49.108;1.502;2023-03-03T01:49:57;322.50;;;297.80;;
67503;SDS011;54351;49.108;1.502;2023-03-03T01:55:02;273.85;;;253.18;;
67503;SDS011;54351;49.108;1.502;2023-03-03T01:57:31;253.48;;;233.48;;
67503;SDS011;54351;49.108;1.502;2023-03-03T01:59:58;297.08;;;273.77;;
67503;SDS011;54351;49.108;1.502;2023-03-03T02:02:25;296.90;;;274.35;;
67503;SDS011;54351;49.108;1.502;2023-03-03T02:04:54;353.50;;;326.13;;
67503;SDS011;54351;49.108;1.502;2023-03-03T02:07:20;326.20;;;301.13;;
67503;SDS011;54351;49.108;1.502;2023-03-03T02:12:17;272.60;;;251.23;;
67503;SDS011;54351;49.108;1.502;2023-03-03T02:14:45;198.48;;;181.50;;
67503;SDS011;54351;49.108;1.502;2023-03-03T02:17:11;267.88;;;246.68;;
67503;SDS011;54351;49.108;1.502;2023-03-03T02:22:24;285.58;;;263.20;;
67503;SDS011;54351;49.108;1.502;2023-03-03T02:24:56;199.43;;;183.20;;
67503;SDS011;54351;49.108;1.502;2023-03-03T02:27:27;178.38;;;162.93;;
67503;SDS011;54351;49.108;1.502;2023-03-03T02:29:54;309.58;;;285.45;;
67503;SDS011;54351;49.108;1.502;2023-03-03T02:32:22;294.65;;;271.90;;
67503;SDS011;54351;49.108;1.502;2023-03-03T02:34:49;303.20;;;279.30;;
67503;SDS011;54351;49.108;1.502;2023-03-03T02:37:16;273.70;;;252.68;;
67503;SDS011;54351;49.108;1.502;2023-03-03T02:39:42;368.00;;;340.02;;
67503;SDS011;54351;49.108;1.502;2023-03-03T02:44:41;225.05;;;206.18;;
67503;SDS011;54351;49.108;1.502;2023-03-03T02:47:07;277.58;;;255.88;;
67503;SDS011;54351;49.108;1.502;2023-03-03T02:49:34;190.40;;;174.05;;
67503;SDS011;54351;49.108;1.502;2023-03-03T02:52:04;276.17;;;253.80;;
67503;SDS011;54351;49.108;1.502;2023-03-03T02:54:33;296.23;;;272.67;;
67503;SDS011;54351;49.108;1.502;2023-03-03T02:57:00;382.90;;;353.25;;
67503;SDS011;54351;49.108;1.502;2023-03-03T02:59:26;261.92;;;240.95;;
67503;SDS011;54351;49.108;1.502;2023-03-03T03:01:52;310.20;;;286.05;;
67503;SDS011;54351;49.108;1.502;2023-03-03T03:04:19;349.05;;;322.33;;
67503;SDS011;54351;49.108;1.502;2023-03-03T03:06:46;266.38;;;245.63;;
67503;SDS011;54351;49.108;1.502;2023-03-03T03:09:12;269.30;;;247.65;;
67503;SDS011;54351;49.108;1.502;2023-03-03T03:11:38;238.52;;;218.95;;
67503;SDS011;54351;49.108;1.502;2023-03-03T03:14:06;229.02;;;210.05;;
67503;SDS011;54351;49.108;1.502;2023-03-03T03:16:32;282.27;;;258.80;;
67503;SDS011;54351;49.108;1.502;2023-03-03T03:18:59;387.48;;;356.95;;
67503;SDS011;54351;49.108;1.502;2023-03-03T03:21:25;270.60;;;247.57;;
67503;SDS011;54351;49.108;1.502;2023-03-03T03:23:51;360.15;;;331.52;;
67503;SDS011;54351;49.108;1.502;2023-03-03T03:26:17;277.17;;;253.68;;
67503;SDS011;54351;49.108;1.502;2023-03-03T03:28:45;165.38;;;149.77;;
67503;SDS011;54351;49.108;1.502;2023-03-03T03:31:11;286.10;;;262.45;;
67503;SDS011;54351;49.108;1.502;2023-03-03T03:33:37;394.50;;;362.98;;
67503;SDS011;54351;49.108;1.502;2023-03-03T03:36:04;337.30;;;309.90;;
67503;SDS011;54351;49.108;1.502;2023-03-03T03:38:30;340.88;;;312.90;;
67503;SDS011;54351;49.108;1.502;2023-03-03T03:40:57;385.60;;;355.13;;
67503;SDS011;54351;49.108;1.502;2023-03-03T03:43:23;370.20;;;341.45;;
67503;SDS011;54351;49.108;1.502;2023-03-03T03:45:50;388.90;;;358.88;;
67503;SDS011;54351;49.108;1.502;2023-03-03T03:48:16;328.30;;;301.17;;
67503;SDS011;54351;49.108;1.502;2023-03-03T03:50:44;330.70;;;304.13;;
67503;SDS011;54351;49.108;1.502;2023-03-03T03:53:10;345.48;;;318.38;;
67503;SDS011;54351;49.108;1.502;2023-03-03T03:55:36;393.75;;;362.50;;
67503;SDS011;54351;49.108;1.502;2023-03-03T03:58:02;321.98;;;294.75;;
67503;SDS011;54351;49.108;1.502;2023-03-03T04:00:31;416.58;;;383.73;;
67503;SDS011;54351;49.108;1.502;2023-03-03T04:02:57;383.95;;;354.15;;
67503;SDS011;54351;49.108;1.502;2023-03-03T04:05:23;336.65;;;309.45;;
67503;SDS011;54351;49.108;1.502;2023-03-03T04:07:49;346.58;;;317.95;;
67503;SDS011;54351;49.108;1.502;2023-03-03T04:10:15;338.38;;;311.08;;
67503;SDS011;54351;49.108;1.502;2023-03-03T04:12:42;369.48;;;339.17;;
67503;SDS011;54351;49.108;1.502;2023-03-03T04:15:09;419.13;;;385.95;;
67503;SDS011;54351;49.108;1.502;2023-03-03T04:17:36;426.45;;;393.02;;
67503;SDS011;54351;49.108;1.502;2023-03-03T04:20:02;413.20;;;380.40;;
67503;SDS011;54351;49.108;1.502;2023-03-03T04:22:29;410.73;;;378.15;;
67503;SDS011;54351;49.108;1.502;2023-03-03T04:25:03;421.20;;;387.70;;
67503;SDS011;54351;49.108;1.502;2023-03-03T04:27:33;396.45;;;364.70;;
67503;SDS011;54351;49.108;1.502;2023-03-03T04:29:59;402.05;;;370.33;;
67503;SDS011;54351;49.108;1.502;2023-03-03T04:32:28;387.05;;;356.42;;
67503;SDS011;54351;49.108;1.502;2023-03-03T04:35:00;389.17;;;358.17;;
67503;SDS011;54351;49.108;1.502;2023-03-03T04:37:50;259.30;;;236.25;;
67503;SDS011;54351;49.108;1.502;2023-03-03T04:40:16;339.00;;;311.30;;
67503;SDS011;54351;49.108;1.502;2023-03-03T04:42:45;348.13;;;319.55;;
67503;SDS011;54351;49.108;1.502;2023-03-03T04:45:11;336.50;;;308.33;;
67503;SDS011;54351;49.108;1.502;2023-03-03T04:47:37;300.50;;;275.40;;
67503;SDS011;54351;49.108;1.502;2023-03-03T04:50:04;391.00;;;360.02;;
67503;SDS011;54351;49.108;1.502;2023-03-03T04:52:30;424.27;;;390.88;;
67503;SDS011;54351;49.108;1.502;2023-03-03T04:54:56;419.25;;;385.83;;
67503;SDS011;54351;49.108;1.502;2023-03-03T04:57:22;378.80;;;347.35;;
67503;SDS011;54351;49.108;1.502;2023-03-03T04:59:48;397.40;;;365.63;;
67503;SDS011;54351;49.108;1.502;2023-03-03T05:02:15;408.67;;;378.45;;
67503;SDS011;54351;49.108;1.502;2023-03-03T05:04:41;426.67;;;393.60;;
67503;SDS011;54351;49.108;1.502;2023-03-03T05:07:07;345.92;;;318.20;;
67503;SDS011;54351;49.108;1.502;2023-03-03T05:09:34;402.20;;;371.25;;
67503;SDS011;54351;49.108;1.502;2023-03-03T05:12:00;436.90;;;402.27;;
67503;SDS011;54351;49.108;1.502;2023-03-03T05:14:26;385.50;;;355.60;;
67503;SDS011;54351;49.108;1.502;2023-03-03T05:16:52;398.08;;;366.92;;
67503;SDS011;54351;49.108;1.502;2023-03-03T05:19:18;359.33;;;331.08;;
67503;SDS011;54351;49.108;1.502;2023-03-03T05:21:44;452.38;;;417.35;;
67503;SDS011;54351;49.108;1.502;2023-03-03T05:24:11;447.45;;;412.35;;
67503;SDS011;54351;49.108;1.502;2023-03-03T05:26:37;456.27;;;421.30;;
67503;SDS011;54351;49.108;1.502;2023-03-03T05:29:04;406.23;;;373.85;;
67503;SDS011;54351;49.108;1.502;2023-03-03T05:31:30;402.70;;;371.92;;
67503;SDS011;54351;49.108;1.502;2023-03-03T05:33:56;378.95;;;348.27;;
67503;SDS011;54351;49.108;1.502;2023-03-03T05:36:22;429.48;;;396.15;;
67503;SDS011;54351;49.108;1.502;2023-03-03T05:38:48;403.38;;;370.00;;
67503;SDS011;54351;49.108;1.502;2023-03-03T05:41:14;320.27;;;293.20;;
67503;SDS011;54351;49.108;1.502;2023-03-03T05:43:41;397.02;;;364.77;;
67503;SDS011;54351;49.108;1.502;2023-03-03T05:46:07;451.73;;;415.70;;
67503;SDS011;54351;49.108;1.502;2023-03-03T05:48:33;302.02;;;275.95;;
67503;SDS011;54351;49.108;1.502;2023-03-03T05:50:59;310.83;;;283.73;;
67503;SDS011;54351;49.108;1.502;2023-03-03T05:53:26;342.27;;;313.60;;
67503;SDS011;54351;49.108;1.502;2023-03-03T05:55:52;324.02;;;297.33;;
67503;SDS011;54351;49.108;1.502;2023-03-03T05:58:18;377.67;;;347.23;;
67503;SDS011;54351;49.108;1.502;2023-03-03T06:00:45;328.38;;;300.90;;
67503;SDS011;54351;49.108;1.502;2023-03-03T06:03:11;395.40;;;364.67;;
67503;SDS011;54351;49.108;1.502;2023-03-03T06:05:37;330.98;;;303.55;;
67503;SDS011;54351;49.108;1.502;2023-03-03T06:08:03;377.35;;;346.23;;
67503;SDS011;54351;49.108;1.502;2023-03-03T06:10:29;358.50;;;328.98;;
67503;SDS011;54351;49.108;1.502;2023-03-03T06:12:55;249.55;;;226.18;;
67503;SDS011;54351;49.108;1.502;2023-03-03T06:15:22;209.35;;;188.88;;
67503;SDS011;54351;49.108;1.502;2023-03-03T06:17:48;183.40;;;162.80;;
67503;SDS011;54351;49.108;1.502;2023-03-03T06:20:15;185.10;;;165.13;;
67503;SDS011;54351;49.108;1.502;2023-03-03T06:22:41;207.82;;;188.50;;
67503;SDS011;54351;49.108;1.502;2023-03-03T06:25:07;196.43;;;177.82;;
67503;SDS011;54351;49.108;1.502;2023-03-03T06:27:33;179.82;;;160.93;;
67503;SDS011;54351;49.108;1.502;2023-03-03T06:29:59;153.10;;;134.98;;
67503;SDS011;54351;49.108;1.502;2023-03-03T06:32:25;191.73;;;172.02;;
67503;SDS011;54351;49.108;1.502;2023-03-03T06:34:51;173.23;;;154.63;;
67503;SDS011;54351;49.108;1.502;2023-03-03T06:37:17;228.45;;;207.48;;
67503;SDS011;54351;49.108;1.502;2023-03-03T06:39:43;238.95;;;217.40;;
67503;SDS011;54351;49.108;1.502;2023-03-03T06:42:10;152.35;;;131.07;;
67503;SDS011;54351;49.108;1.502;2023-03-03T06:44:36;172.38;;;154.05;;
67503;SDS011;54351;49.108;1.502;2023-03-03T06:47:02;169.30;;;151.48;;
67503;SDS011;54351;49.108;1.502;2023-03-03T06:49:28;168.20;;;149.93;;
67503;SDS011;54351;49.108;1.502;2023-03-03T06:51:54;197.73;;;177.13;;
67503;SDS011;54351;49.108;1.502;2023-03-03T06:54:23;161.18;;;138.70;;
67503;SDS011;54351;49.108;1.502;2023-03-03T06:56:53;167.32;;;149.63;;
67503;SDS011;54351;49.108;1.502;2023-03-03T06:59:20;184.65;;;166.30;;
67503;SDS011;54351;49.108;1.502;2023-03-03T07:01:47;154.05;;;132.98;;
67503;SDS011;54351;49.108;1.502;2023-03-03T07:04:24;179.88;;;159.68;;
67503;SDS011;54351;49.108;1.502;2023-03-03T07:07:18;193.63;;;174.48;;
67503;SDS011;54351;49.108;1.502;2023-03-03T07:09:42;203.05;;;183.18;;
67503;SDS011;54351;49.108;1.502;2023-03-03T07:12:09;171.25;;;153.30;;
67503;SDS011;54351;49.108;1.502;2023-03-03T07:14:38;165.30;;;148.70;;
67503;SDS011;54351;49.108;1.502;2023-03-03T07:17:09;142.77;;;127.17;;
67503;SDS011;54351;49.108;1.502;2023-03-03T07:19:35;156.73;;;138.88;;
67503;SDS011;54351;49.108;1.502;2023-03-03T07:22:18;147.40;;;125.93;;
67503;SDS011;54351;49.108;1.502;2023-03-03T07:24:47;127.72;;;100.70;;
67503;SDS011;54351;49.108;1.502;2023-03-03T07:27:23;132.38;;;115.25;;
67503;SDS011;54351;49.108;1.502;2023-03-03T07:29:50;130.25;;;105.28;;
67503;SDS011;54351;49.108;1.502;2023-03-03T07:32:21;117.75;;;87.05;;
67503;SDS011;54351;49.108;1.502;2023-03-03T07:34:50;131.55;;;109.57;;
67503;SDS011;54351;49.108;1.502;2023-03-03T07:37:21;148.93;;;133.48;;
67503;SDS011;54351;49.108;1.502;2023-03-03T07:39:51;119.65;;;98.55;;
67503;SDS011;54351;49.108;1.502;2023-03-03T07:42:21;156.90;;;141.35;;
67503;SDS011;54351;49.108;1.502;2023-03-03T07:44:52;186.30;;;168.38;;
67503;SDS011;54351;49.108;1.502;2023-03-03T07:49:49;172.38;;;155.25;;
67503;SDS011;54351;49.108;1.502;2023-03-03T07:54:55;314.10;;;290.67;;
67503;SDS011;54351;49.108;1.502;2023-03-03T07:57:25;350.25;;;324.42;;
67503;SDS011;54351;49.108;1.502;2023-03-03T07:59:52;374.90;;;346.83;;
67503;SDS011;54351;49.108;1.502;2023-03-03T08:02:28;359.35;;;332.40;;
67503;SDS011;54351;49.108;1.502;2023-03-03T08:04:56;434.70;;;402.38;;
67503;SDS011;54351;49.108;1.502;2023-03-03T08:07:22;399.45;;;370.05;;
67503;SDS011;54351;49.108;1.502;2023-03-03T08:09:48;431.35;;;399.10;;
67503;SDS011;54351;49.108;1.502;2023-03-03T08:14:44;470.42;;;435.25;;
67503;SDS011;54351;49.108;1.502;2023-03-03T08:17:34;422.20;;;390.13;;
67503;SDS011;54351;49.108;1.502;2023-03-03T08:19:57;451.40;;;417.55;;
67503;SDS011;54351;49.108;1.502;2023-03-03T08:22:27;277.85;;;255.73;;
67503;SDS011;54351;49.108;1.502;2023-03-03T08:24:55;175.48;;;159.80;;
67503;SDS011;54351;49.108;1.502;2023-03-03T08:27:22;314.10;;;288.85;;
67503;SDS011;54351;49.108;1.502;2023-03-03T08:29:48;203.60;;;184.88;;
67503;SDS011;54351;49.108;1.502;2023-03-03T08:32:14;310.65;;;286.48;;
67503;SDS011;54351;49.108;1.502;2023-03-03T08:34:40;320.92;;;294.85;;
67503;SDS011;54351;49.108;1.502;2023-03-03T08:37:06;321.63;;;296.00;;
67503;SDS011;54351;49.108;1.502;2023-03-03T08:39:32;240.05;;;220.13;;
67503;SDS011;54351;49.108;1.502;2023-03-03T08:41:58;215.68;;;197.57;;
67503;SDS011;54351;49.108;1.502;2023-03-03T08:44:24;331.80;;;305.48;;
67503;SDS011;54351;49.108;1.502;2023-03-03T08:46:50;287.00;;;263.95;;
67503;SDS011;54351;49.108;1.502;2023-03-03T08:49:16;135.65;;;123.20;;
67503;SDS011;54351;49.108;1.502;2023-03-03T08:51:42;263.40;;;241.45;;
67503;SDS011;54351;49.108;1.502;2023-03-03T08:54:09;218.23;;;199.77;;
67503;SDS011;54351;49.108;1.502;2023-03-03T08:56:35;137.32;;;124.15;;
67503;SDS011;54351;49.108;1.502;2023-03-03T08:59:01;115.25;;;103.80;;
67503;SDS011;54351;49.108;1.502;2023-03-03T09:01:27;215.43;;;196.75;;
67503;SDS011;54351;49.108;1.502;2023-03-03T09:03:53;101.20;;;90.70;;
67503;SDS011;54351;49.108;1.502;2023-03-03T09:06:19;236.23;;;215.77;;
67503;SDS011;54351;49.108;1.502;2023-03-03T09:08:45;202.13;;;185.43;;
67503;SDS011;54351;49.108;1.502;2023-03-03T09:11:12;221.25;;;203.23;;
67503;SDS011;54351;49.108;1.502;2023-03-03T09:13:38;168.05;;;154.93;;
67503;SDS011;54351;49.108;1.502;2023-03-03T09:16:14;237.40;;;220.38;;
67503;SDS011;54351;49.108;1.502;2023-03-03T09:18:40;180.98;;;166.98;;
67503;SDS011;54351;49.108;1.502;2023-03-03T09:21:40;200.85;;;184.55;;
67503;SDS011;54351;49.108;1.502;2023-03-03T09:23:59;194.15;;;179.52;;
67503;SDS011;54351;49.108;1.502;2023-03-03T09:29:37;273.83;;;254.30;;
67503;SDS011;54351;49.108;1.502;2023-03-03T09:31:40;291.73;;;271.52;;
67503;SDS011;54351;49.108;1.502;2023-03-03T09:34:49;227.75;;;211.48;;
67503;SDS011;54351;49.108;1.502;2023-03-03T09:36:56;112.93;;;102.43;;
67503;SDS011;54351;49.108;1.502;2023-03-03T09:39:24;129.98;;;118.80;;
67503;SDS011;54351;49.108;1.502;2023-03-03T09:44:29;230.27;;;212.43;;
67503;SDS011;54351;49.108;1.502;2023-03-03T09:55:00;442.10;;;412.75;;
67503;SDS011;54351;49.108;1.502;2023-03-03T10:12:34;553.20;;;515.47;;
67503;SDS011;54351;49.108;1.502;2023-03-03T10:15:26;567.97;;;529.30;;
67503;SDS011;54351;49.108;1.502;2023-03-03T10:22:55;421.73;;;391.83;;
67503;SDS011;54351;49.108;1.502;2023-03-03T10:28:09;322.00;;;298.13;;
67503;SDS011;54351;49.108;1.502;2023-03-03T10:51:26;434.70;;;403.55;;
67503;SDS011;54351;49.108;1.502;2023-03-03T10:54:00;499.48;;;462.77;;
67503;SDS011;54351;49.108;1.502;2023-03-03T10:59:24;402.52;;;372.58;;
67503;SDS011;54351;49.108;1.502;2023-03-03T11:06:57;710.25;;;650.90;;
67503;SDS011;54351;49.108;1.502;2023-03-03T11:19:58;775.33;;;707.58;;
67503;SDS011;54351;49.108;1.502;2023-03-03T11:22:30;756.30;;;690.03;;
67503;SDS011;54351;49.108;1.502;2023-03-03T11:33:00;927.60;;;846.17;;
67503;SDS011;54351;49.108;1.502;2023-03-03T11:43:24;815.72;;;747.20;;
67503;SDS011;54351;49.108;1.502;2023-03-03T11:45:55;803.58;;;736.53;;
67503;SDS011;54351;49.108;1.502;2023-03-03T11:48:37;856.25;;;785.70;;
67503;SDS011;54351;49.108;1.502;2023-03-03T11:51:10;741.55;;;679.55;;
67503;SDS011;54351;49.108;1.502;2023-03-03T12:04:02;397.50;;;365.58;;
67503;SDS011;54351;49.108;1.502;2023-03-03T12:07:31;524.15;;;480.92;;
67503;SDS011;54351;49.108;1.502;2023-03-03T12:27:34;186.18;;;175.02;;
67503;SDS011;54351;49.108;1.502;2023-03-03T12:35:25;99.22;;;92.93;;
67503;SDS011;54351;49.108;1.502;2023-03-03T12:40:25;62.80;;;58.47;;
67503;SDS011;54351;49.108;1.502;2023-03-03T12:48:18;49.50;;;46.25;;
67503;SDS011;54351;49.108;1.502;2023-03-03T12:50:51;72.20;;;67.57;;
67503;SDS011;54351;49.108;1.502;2023-03-03T12:56:07;67.22;;;63.05;;
67503;SDS011;54351;49.108;1.502;2023-03-03T13:06:32;161.60;;;152.38;;
67503;SDS011;54351;49.108;1.502;2023-03-03T13:09:01;199.95;;;188.52;;
67503;SDS011;54351;49.108;1.502;2023-03-03T13:11:41;207.70;;;195.85;;
67503;SDS011;54351;49.108;1.502;2023-03-03T13:16:53;194.75;;;183.65;;
67503;SDS011;54351;49.108;1.502;2023-03-03T13:19:31;195.43;;;184.10;;
67503;SDS011;54351;49.108;1.502;2023-03-03T13:22:05;163.88;;;154.23;;
67503;SDS011;54351;49.108;1.502;2023-03-03T13:24:37;200.32;;;188.70;;
67503;SDS011;54351;49.108;1.502;2023-03-03T13:27:07;214.57;;;202.45;;
67503;SDS011;54351;49.108;1.502;2023-03-03T13:29:38;155.93;;;146.55;;
67503;SDS011;54351;49.108;1.502;2023-03-03T13:32:22;167.43;;;157.48;;
67503;SDS011;54351;49.108;1.502;2023-03-03T13:34:50;159.90;;;150.52;;
67503;SDS011;54351;49.108;1.502;2023-03-03T13:37:20;156.10;;;146.38;;
67503;SDS011;54351;49.108;1.502;2023-03-03T13:39:57;165.57;;;155.73;;
67503;SDS011;54351;49.108;1.502;2023-03-03T13:45:12;149.23;;;140.20;;
67503;SDS011;54351;49.108;1.502;2023-03-03T13:47:43;143.18;;;134.32;;
67503;SDS011;54351;49.108;1.502;2023-03-03T13:50:36;113.13;;;105.95;;
67503;SDS011;54351;49.108;1.502;2023-03-03T13:53:13;171.52;;;161.57;;
67503;SDS011;54351;49.108;1.502;2023-03-03T13:55:54;151.40;;;142.48;;
67503;SDS011;54351;49.108;1.502;2023-03-03T14:06:17;145.57;;;136.75;;
67503;SDS011;54351;49.108;1.502;2023-03-03T14:21:11;120.78;;;113.28;;
67503;SDS011;54351;49.108;1.502;2023-03-03T14:26:14;95.22;;;89.28;;
67503;SDS011;54351;49.108;1.502;2023-03-03T14:28:44;109.65;;;102.78;;
67503;SDS011;54351;49.108;1.502;2023-03-03T14:33:40;77.00;;;72.15;;
67503;SDS011;54351;49.108;1.502;2023-03-03T14:36:12;86.45;;;81.20;;
67503;SDS011;54351;49.108;1.502;2023-03-03T14:38:41;64.55;;;60.65;;
67503;SDS011;54351;49.108;1.502;2023-03-03T14:46:21;34.88;;;32.40;;
67503;SDS011;54351;49.108;1.502;2023-03-03T14:48:52;40.53;;;37.67;;
67503;SDS011;54351;49.108;1.502;2023-03-03T14:53:47;28.67;;;26.75;;
67503;SDS011;54351;49.108;1.502;2023-03-03T14:56:22;48.40;;;45.35;;
67503;SDS011;54351;49.108;1.502;2023-03-03T14:58:52;29.38;;;27.45;;
67503;SDS011;54351;49.108;1.502;2023-03-03T15:01:31;37.67;;;35.03;;
67503;SDS011;54351;49.108;1.502;2023-03-03T15:04:00;35.00;;;32.72;;
67503;SDS011;54351;49.108;1.502;2023-03-03T15:06:32;47.78;;;44.85;;
67503;SDS011;54351;49.108;1.502;2023-03-03T15:11:43;28.90;;;26.95;;
67503;SDS011;54351;49.108;1.502;2023-03-03T15:14:13;43.13;;;40.40;;
67503;SDS011;54351;49.108;1.502;2023-03-03T15:16:40;40.83;;;38.08;;
67503;SDS011;54351;49.108;1.502;2023-03-03T15:24:33;30.85;;;28.73;;
67503;SDS011;54351;49.108;1.502;2023-03-03T15:27:07;18.60;;;17.10;;
67503;SDS011;54351;49.108;1.502;2023-03-03T15:29:36;25.10;;;23.27;;
67503;SDS011;54351;49.108;1.502;2023-03-03T15:32:14;22.40;;;20.60;;
67503;SDS011;54351;49.108;1.502;2023-03-03T15:34:45;22.35;;;20.55;;
67503;SDS011;54351;49.108;1.502;2023-03-03T15:42:20;23.50;;;21.75;;
67503;SDS011;54351;49.108;1.502;2023-03-03T16:05:58;109.25;;;100.88;;
67503;SDS011;54351;49.108;1.502;2023-03-03T16:08:29;90.78;;;83.65;;
67503;SDS011;54351;49.108;1.502;2023-03-03T16:11:32;73.25;;;67.38;;
67503;SDS011;54351;49.108;1.502;2023-03-03T16:24:05;38.88;;;35.83;;
67503;SDS011;54351;49.108;1.502;2023-03-03T16:26:37;24.50;;;22.20;;
67503;SDS011;54351;49.108;1.502;2023-03-03T16:31:52;13.43;;;12.13;;
67503;SDS011;54351;49.108;1.502;2023-03-03T16:34:29;14.00;;;11.45;;
67503;SDS011;54351;49.108;1.502;2023-03-03T16:39:47;14.00;;;12.70;;
67503;SDS011;54351;49.108;1.502;2023-03-03T16:42:30;15.30;;;13.93;;
67503;SDS011;54351;49.108;1.502;2023-03-03T16:55:31;21.55;;;19.70;;
67503;SDS011;54351;49.108;1.502;2023-03-03T17:00:37;58.47;;;50.65;;
67503;SDS011;54351;49.108;1.502;2023-03-03T17:03:12;30.13;;;26.90;;
67503;SDS011;54351;49.108;1.502;2023-03-03T17:21:17;148.70;;;138.87;;
67503;SDS011;54351;49.108;1.502;2023-03-03T17:31:36;302.42;;;283.60;;
67503;SDS011;54351;49.108;1.502;2023-03-03T17:34:07;291.75;;;272.73;;
67503;SDS011;54351;49.108;1.502;2023-03-03T17:42:19;247.55;;;230.30;;
67503;SDS011;54351;49.108;1.502;2023-03-03T17:47:18;199.27;;;184.82;;
67503;SDS011;54351;49.108;1.502;2023-03-03T17:49:57;240.80;;;223.70;;
67503;SDS011;54351;49.108;1.502;2023-03-03T17:55:05;170.82;;;158.23;;
67503;SDS011;54351;49.108;1.502;2023-03-03T18:02:59;144.85;;;134.50;;
67503;SDS011;54351;49.108;1.502;2023-03-03T18:05:32;137.70;;;128.25;;
67503;SDS011;54351;49.108;1.502;2023-03-03T18:13:28;129.57;;;120.43;;
67503;SDS011;54351;49.108;1.502;2023-03-03T18:16:00;113.32;;;105.20;;
67503;SDS011;54351;49.108;1.502;2023-03-03T18:18:40;110.00;;;102.07;;
67503;SDS011;54351;49.108;1.502;2023-03-03T18:21:14;118.53;;;109.80;;
67503;SDS011;54351;49.108;1.502;2023-03-03T18:23:41;74.30;;;68.40;;
67503;SDS011;54351;49.108;1.502;2023-03-03T18:29:10;68.22;;;62.85;;
67503;SDS011;54351;49.108;1.502;2023-03-03T18:36:59;63.42;;;57.72;;
67503;SDS011;54351;49.108;1.502;2023-03-03T18:42:10;92.47;;;84.70;;
67503;SDS011;54351;49.108;1.502;2023-03-03T18:44:37;97.95;;;90.18;;
67503;SDS011;54351;49.108;1.502;2023-03-03T18:47:03;72.20;;;66.10;;
67503;SDS011;54351;49.108;1.502;2023-03-03T18:52:20;136.25;;;126.15;;
67503;SDS011;54351;49.108;1.502;2023-03-03T18:57:25;200.45;;;186.15;;
67503;SDS011;54351;49.108;1.502;2023-03-03T18:59:53;155.05;;;144.07;;
67503;SDS011;54351;49.108;1.502;2023-03-03T19:08:15;130.73;;;120.85;;
67503;SDS011;54351;49.108;1.502;2023-03-03T19:13:34;135.23;;;125.88;;
67503;SDS011;54351;49.108;1.502;2023-03-03T19:15:56;203.05;;;189.65;;
67503;SDS011;54351;49.108;1.502;2023-03-03T19:18:24;168.93;;;157.73;;
67503;SDS011;54351;49.108;1.502;2023-03-03T19:21:05;231.65;;;216.80;;
67503;SDS011;54351;49.108;1.502;2023-03-03T19:34:27;212.30;;;198.75;;
67503;SDS011;54351;49.108;1.502;2023-03-03T19:37:06;206.13;;;193.13;;
67503;SDS011;54351;49.108;1.502;2023-03-03T19:52:45;147.40;;;137.48;;
67503;SDS011;54351;49.108;1.502;2023-03-03T20:00:08;116.72;;;107.72;;
67503;SDS011;54351;49.108;1.502;2023-03-03T20:20:47;157.23;;;144.82;;
67503;SDS011;54351;49.108;1.502;2023-03-03T20:25:51;153.73;;;140.60;;
67503;SDS011;54351;49.108;1.502;2023-03-03T20:36:14;305.23;;;284.08;;
67503;SDS011;54351;49.108;1.502;2023-03-03T20:43:57;293.08;;;273.55;;
67503;SDS011;54351;49.108;1.502;2023-03-03T20:54:31;206.02;;;192.32;;
67503;SDS011;54351;49.108;1.502;2023-03-03T21:05:20;140.02;;;129.50;;
67503;SDS011;54351;49.108;1.502;2023-03-03T21:07:51;172.52;;;160.88;;